x

8419317 - Wells, Me (welm1) Weather Station

4:00 - Tue 6th Dec 2016 All times are EST. -5 hours from GMT.

  • Wind
    7mph, 9mph gusts
  • Sea Temp 46°f
  • Air Temp 38°f
  • Sea Pressure 1017.6mb
  • 8419317 - Wells, Me
  • 8419317 - Wells, Me

More Historic Weather Station data

Upgrade to MSW Pro to gain access to the past 30 days of data for over 8000 Wavebouys and Weather Stations around the globe.

Join Pro

Comparision Forecast

View Surf forecast
   
mar. 12/06 4:00 7 9 mph 1017.6mb 46f 38f
3:48 6 7 mph 1017.7mb 46f 38f
3:42 5 6 mph 1017.7mb 46f 38f
3:36 5 6 mph 1017.7mb 46f 38f
3:30 3 6 mph 1017.7mb 46f 39f
3:24 5 6 mph 1017.8mb 46f 39f
3:18 3 6 mph 1017.9mb 46f 39f
3:12 5 6 mph 1017.9mb 46f 39f
3:06 3 6 mph 1018.1mb 46f 39f
3:00 5 6 mph 1018.1mb 46f 39f
2:54 5 6 mph 1018mb 46f 40f
2:48 6 7 mph 1017.9mb 46f 40f
2:42 6 7 mph 1018mb 46f 40f
2:36 3 5 mph 1018mb 46f 40f
2:30 5 6 mph 1018.1mb 46f 40f
2:24 5 6 mph 1018.1mb 46f 40f
2:18 5 6 mph 1018mb 46f 40f
2:12 3 6 mph 1018.1mb 46f 40f
2:06 5 6 mph 1018.1mb 46f 40f
2:00 6 7 mph 1018mb 46f 40f
1:30 6 7 mph 1018.2mb 46f 39f
1:24 5 6 mph 1018.1mb 46f 39f
1:18 6 9 mph 1018mb 46f 40f
1:12 5 7 mph 1018mb 46f 39f
1:06 6 8 mph 1018.1mb 46f 39f
1:00 6 8 mph 1018.1mb 46f 39f
12:30 6 7 mph 1018.5mb 46f 38f
12:24 5 6 mph 1018.7mb 46f 38f
12:18 5 6 mph 1018.8mb 45f 38f
12:12 5 7 mph 1018.9mb 44f 38f
12:06 3 6 mph 1019mb 44f 38f
12:00 5 7 mph 1019.1mb 44f 38f
11:54 5 7 mph 1019.1mb 44f 38f
11:48 6 7 mph 1019.1mb 42f 38f
11:42 6 8 mph 1019.2mb 42f 38f
11:36 6 7 mph 1019.2mb 42f 38f
11:30 5 6 mph 1019.3mb 42f 38f
11:24 5 6 mph 1019.4mb 42f 38f
11:18 3 5 mph 1019.5mb 42f 38f
11:12 3 7 mph 1019.5mb 42f 38f
11:06 6 7 mph 1019.3mb 42f 38f
11:00 3 5 mph 1019.5mb 42f 38f
10:54 3 6 mph 1019.6mb 42f 38f
10:48 5 6 mph 1019.6mb 43f 38f
10:42 3 6 mph 1019.6mb 44f 38f
10:36 2 5 mph 1019.5mb 44f 38f
10:30 3 5 mph 1019.6mb 44f 37f
10:24 5 7 mph 1019.6mb 44f 37f
10:18 6 7 mph 1019.7mb 44f 37f
10:12 5 7 mph 1019.8mb 44f 37f
10:06 5 7 mph 1019.9mb 44f 37f
10:00 6 7 mph 1019.7mb 44f 37f
9:54 6 8 mph 1019.7mb 44f 36f
9:48 5 6 mph 1019.7mb 44f 36f
9:42 3 5 mph 1019.8mb 44f 36f
9:36 2 5 mph 1019.8mb 44f 35f
9:30 3 6 mph 1019.9mb 44f 35f
9:24 5 6 mph 1019.9mb 44f 35f
9:18 6 7 mph 1019.8mb 44f 35f
9:12 5 7 mph 1019.7mb 44f 34f
9:06 5 7 mph 1019.6mb 44f 34f
9:00 7 8 mph 1019.6mb 44f 33f
8:54 6 8 mph 1019.7mb 44f 33f
8:48 7 9 mph 1019.5mb 44f 33f
8:42 8 9 mph 1019.4mb 45f 32f
8:36 7 9 mph 1019.3mb 45f 32f
8:30 6 8 mph 1019.4mb 45f 31f
8:24 6 9 mph 1019.3mb 45f 31f
8:18 8 10 mph 1019.1mb 45f 31f
8:12 7 10 mph 1019.2mb 45f 31f
8:06 7 9 mph 1019.3mb 45f 31f
8:00 6 9 mph 1019.3mb 45f 30f
7:54 6 9 mph 1019.3mb 45f 31f
7:48 6 7 mph 1019.4mb 45f 30f
7:42 6 8 mph 1019.3mb 45f 30f
7:36 6 8 mph 1019.1mb 45f 29f
7:30 6 7 mph 1019mb 45f 29f
7:24 5 7 mph 1019mb 46f 28f
7:18 3 6 mph 1019mb 46f 28f
7:12 3 5 mph 1019mb 46f 26f
7:06 3 6 mph 1019mb 46f 28f
7:00 5 7 mph 1019mb 46f 28f
6:54 5 7 mph 1019mb 46f 28f
6:48 5 7 mph 1018.9mb 46f 28f
6:42 5 7 mph 1018.8mb 46f 28f
6:36 3 7 mph 1018.7mb 46f 28f
6:30 5 8 mph 1018.8mb 46f 28f
6:24 7 8 mph 1018.8mb 46f 28f
6:18 5 6 mph 1018.7mb 46f 28f
6:12 3 6 mph 1018.7mb 46f 28f
6:06 3 6 mph 1018.8mb 46f 27f
6:00 5 7 mph 1018.7mb 46f 27f
5:54 5 7 mph 1018.7mb 46f 28f
5:48 6 7 mph 1018.7mb 46f 28f
5:42 6 8 mph 1018.7mb 46f 28f
5:36 7 8 mph 1018.7mb 46f 28f
5:30 7 8 mph 1018.7mb 46f 28f
5:24 6 8 mph 1018.6mb 46f 29f
5:18 6 8 mph 1018.6mb 46f 29f
5:12 7 9 mph 1018.5mb 46f 29f
5:06 7 9 mph 1018.5mb 46f 29f
5:00 7 9 mph 1018.4mb 46f 28f
4:54 7 8 mph 1018.4mb 46f 28f
4:48 6 8 mph 1018.3mb 46f 28f
4:42 7 8 mph 1018.2mb 46f 28f
4:36 6 7 mph 1018.1mb 46f 28f
4:30 6 7 mph 1018.1mb 46f 28f
4:24 6 9 mph 1018.1mb 46f 28f
4:18 7 9 mph 1018mb 46f 28f
4:12 7 8 mph 1017.9mb 46f 28f
4:06 6 7 mph 1017.9mb 46f 28f
4:00 6 7 mph 1017.9mb 46f 29f
3:54 5 6 mph 1017.9mb 46f 29f
3:48 6 7 mph 1017.8mb 46f 28f
3:42 6 7 mph 1017.8mb 46f 29f
3:36 7
mph
1017.8mb 46f 29f
3:30 6 8 mph 1017.8mb 46f 29f
3:24 7 8 mph 1017.7mb 46f 29f
3:18 6 7 mph 1017.6mb 46f 29f
3:12 5 6 mph 1017.6mb 46f 29f
3:06 5 6 mph 1017.7mb 46f 29f
3:00 3 6 mph 1017.5mb 46f 29f
2:54 5
mph
1017.4mb 46f 29f
2:48 3
mph
1017.4mb 46f 28f
2:42 3
mph
1017.3mb 46f 29f
2:36 2 3 mph 1017.2mb 46f 29f
2:30 2 3 mph 1017.2mb 46f 29f
2:24 3 5 mph 1017mb 46f 30f
2:18 5 6 mph 1016.8mb 46f 31f
2:12 5 6 mph 1016.8mb 46f 31f
2:06 3 5 mph 1016.8mb 46f 30f
2:00 5
mph
1016.7mb 46f 31f
1:54 2 3 mph 1016.6mb 46f 31f
1:48 2 5 mph 1016.4mb 46f 31f
1:42 5 7 mph 1016.3mb 46f 31f
1:36 6 7 mph 1016.2mb 46f 31f
1:30 5 8 mph 1016mb 46f 31f
1:24 5 7 mph 1015.8mb 46f 31f
1:18 3 7 mph 1015.8mb 46f 31f
1:12 6 7 mph 1015.6mb 46f 31f
1:06 6 8 mph 1015.4mb 46f 31f
1:00 3 8 mph 1015.3mb 46f 31f
12:54 6 8 mph 1015.1mb 46f 31f
12:48 7 9 mph 1015mb 46f 31f
12:42 6 10 mph 1014.9mb 46f 31f
12:36 7 10 mph 1014.9mb 46f 31f
12:30 8 10 mph 1014.7mb 46f 31f
12:24 8 11 mph 1014.7mb 45f 31f
12:18 7 11 mph 1014.8mb 45f 31f
12:12 8 13 mph 1014.7mb 45f 31f
12:06 9 14 mph 1014.6mb 45f 31f
12:00 7 11 mph 1014.6mb 45f 30f
lun. 12/05 11:54 9 11 mph 1014.6mb 44f 30f
11:48 7 11 mph 1014.4mb 44f 30f
11:42 7 11 mph 1014.5mb 44f 30f
11:36 6 10 mph 1014.4mb 43f 30f
11:30 6 11 mph 1014.4mb 43f 30f
11:18 6 11 mph 1014.4mb 43f 30f
11:12 7 11 mph 1014.3mb 42f 30f
11:06 9 13 mph 1014.4mb 42f 31f
11:00 8 13 mph 1014.3mb 42f 30f
10:54 8 11 mph 1014.3mb 42f 30f
10:48 8 13 mph 1014.2mb 42f 30f
10:42 8 11 mph 1014.2mb 42f 30f
10:36 7 11 mph 1014.1mb 42f 30f
10:30 8 14 mph 1014mb 43f 30f
10:24 8 11 mph 1013.8mb 44f 30f
10:18 8 13 mph 1013.7mb 44f 30f
10:12 8 11 mph 1013.6mb 44f 30f
10:06 7 10 mph 1013.7mb 44f 30f
10:00 7 11 mph 1013.7mb 44f 30f
9:54 6 11 mph 1013.7mb 44f 30f
9:48 7 10 mph 1013.8mb 44f 30f
9:42 6 9 mph 1013.9mb 44f 30f
9:36 6 9 mph 1013.8mb 44f 30f
9:30 7 10 mph 1013.7mb 45f 30f
9:24 7 10 mph 1013.7mb 45f 30f
9:18 6 10 mph 1013.6mb 45f 30f
9:12 7 9 mph 1013.5mb 45f 30f
9:06 6 10 mph 1013.4mb 45f 30f
9:00 5 9 mph 1013.4mb 45f 30f
8:54 5 9 mph 1013.3mb 45f 30f
8:48 6 10 mph 1013.2mb 45f 30f
8:42 7 9 mph 1013.2mb 45f 30f
8:36 5 9 mph 1013.1mb 45f 30f
8:30 5 7 mph 1013.1mb 45f 30f
8:24 6 9 mph 1013.2mb 45f 30f
8:18 6 10 mph 1013.2mb 45f 30f
8:12 6 10 mph 1013.2mb 45f 30f
8:06 6 9 mph 1013.1mb 45f 30f
8:00 7 10 mph 1013.1mb 45f 30f
7:54 8 10 mph 1013.2mb 45f 30f
7:48 6 8 mph 1013.3mb 46f 30f
7:42 5 7 mph 1013.4mb 46f 30f
7:36 6 7 mph 1013.5mb 46f 29f
7:30 5 6 mph 1013.4mb 46f 30f
7:24 3 6 mph 1013.2mb 46f 30f
7:18 3 5 mph 1013.3mb 46f 29f
7:12 2 5 mph 1013.2mb 46f 29f
7:06 2 3 mph 1013.3mb 46f 29f
7:00 2 3 mph 1013.3mb 46f 29f
6:54 2 3 mph 1013.5mb 46f 30f
6:48 1 3 mph 1013.6mb 46f 30f
6:42 2 3 mph 1013.3mb 46f 30f
6:36 2 3 mph 1013.4mb 46f 30f
6:30 2 3 mph 1013.3mb 46f 30f
6:24 2 3 mph 1013.2mb 46f 30f
6:18 3 5 mph 1013.3mb 46f 30f
6:12 3 6 mph 1013.2mb 46f 30f
6:06 5 6 mph 1013.3mb 46f 30f
6:00 2 5 mph 1013.3mb 46f 30f
5:54 3 5 mph 1013.4mb 46f 30f
5:48 3 5 mph 1013.3mb 46f 30f
5:42 3 5 mph 1013.3mb 46f 30f
5:36 3 6 mph 1013.4mb 46f 30f
5:30 3 5 mph 1013.3mb 46f 30f
5:24 3 6 mph 1013.3mb 46f 30f
5:18 2 3 mph 1013.1mb 46f 30f
5:12 3
mph
1013.1mb 46f 30f
5:06 3 5 mph 1013.1mb 46f 30f
5:00 3 5 mph 1013.2mb 46f 31f
4:54 3 6 mph 1013.3mb 46f 31f
4:48 3 6 mph 1013.3mb 46f 30f
4:42 5 6 mph 1013.2mb 46f 31f
4:36 3 5 mph 1013.1mb 46f 31f
4:30 5 6 mph 1013.1mb 46f 31f
4:24 3 5 mph 1013mb 46f 31f
4:18 5
mph
1013mb 46f 31f
4:12 2 5 mph 1013mb 46f 31f
4:06 5 6 mph 1013mb 46f 31f
4:00 5 6 mph 1013mb 46f 31f
3:54 5 6 mph 1013.1mb 46f 31f
3:48 5 6 mph 1013.1mb 46f 31f
3:42 6 7 mph 1013.2mb 47f 31f
3:36 6 7 mph 1013.2mb 47f 31f
3:30 6 7 mph 1013.3mb 47f 31f
3:24 5 6 mph 1013.3mb 47f 31f
3:18 6 7 mph 1013.4mb 47f 31f
3:12 5 7 mph 1013.4mb 47f 31f
3:06 7 9 mph 1013.4mb 47f 31f
3:00 7 8 mph 1013.4mb 47f 31f
2:54 7 8 mph 1013.3mb 47f 31f
2:48 6 8 mph 1013.2mb 47f 31f
2:42 8
mph
1013.1mb 47f 30f
2:36 7
mph
1013.1mb 47f 31f
2:30 6 8 mph 1013.1mb 47f 31f
2:24 7 8 mph 1013mb 47f 31f
2:18 6 9 mph 1013.1mb 47f 31f
2:12 6 9 mph 1013.2mb 47f 31f
2:06 6 9 mph 1013.3mb 47f 31f
2:00 6 7 mph 1013.2mb 47f 31f
1:54 7 8 mph 1013.2mb 47f 31f
1:48 7 8 mph 1013.1mb 47f 31f
1:42 6 7 mph 1013.1mb 47f 31f
1:36 6
mph
1013.2mb 47f 31f
1:30 6 7 mph 1013.3mb 47f 31f
1:24 5 6 mph 1013.4mb 47f 31f
1:18 5 6 mph 1013.4mb 47f 31f
1:12 5
mph
1013.4mb 47f 31f
1:06 5
mph
1013.5mb 47f 31f
1:00 3 5 mph 1013.5mb 47f 31f
12:54 3
mph
1013.6mb 47f 31f
12:48 3 5 mph 1013.7mb 47f 31f
12:42 3 5 mph 1013.7mb 47f 31f
12:36 3 5 mph 1013.8mb 47f 31f
12:30 5
mph
1013.8mb 47f 31f
12:24 5 6 mph 1013.9mb 47f 31f
12:18 6
mph
1014mb 47f 30f
12:12 5 7 mph 1014.1mb 47f 30f
12:06 6 7 mph 1014.3mb 47f 30f
12:00 6 7 mph 1014.4mb 47f 30f
11:54 6
mph
1014.5mb 47f 30f
11:48 6 7 mph 1014.6mb 47f 30f
11:42 6 7 mph 1014.7mb 47f 30f
11:36 6 7 mph 1014.8mb 46f 30f
11:30 6 7 mph 1015mb 46f 30f
11:24 5 6 mph 1015.2mb 46f 29f
11:18 5 6 mph 1015.4mb 45f 29f
11:12 5 6 mph 1015.6mb 45f 29f
11:06 5
mph
1015.8mb 45f 29f
11:00 3 5 mph 1016mb 44f 29f
10:54 3 5 mph 1016.2mb 44f 29f
10:48 2 3 mph 1016.4mb 44f 29f
10:42 2 3 mph 1016.5mb 44f 29f
10:36 2 3 mph 1016.6mb 44f 29f
10:30 2 3 mph 1016.7mb 44f 29f
10:24 2 3 mph 1017mb 44f 29f
10:18 3 5 mph 1017.1mb 44f 29f
10:12 3 6 mph 1017.1mb 44f 29f
10:06 5 6 mph 1017.2mb 44f 29f
10:00 5 6 mph 1017.3mb 44f 29f
9:54 5 6 mph 1017.3mb 44f 28f
9:48 6 7 mph 1017.3mb 45f 28f
9:42 5 6 mph 1017.4mb 45f 28f
9:36 5 6 mph 1017.5mb 45f 28f
9:30 6
mph
1017.6mb 45f 28f
9:24 6
mph
1017.7mb 45f 28f
9:18 6 7 mph 1018mb 45f 28f
9:12 6 7 mph 1017.9mb 45f 28f
9:06 5 7 mph 1017.8mb 45f 28f
9:00 6 8 mph 1017.9mb 45f 28f
8:54 7
mph
1018.1mb 45f 28f
8:48 7 8 mph 1018mb 46f 28f
8:42 6 7 mph 1018.1mb 46f 28f
8:36 6 7 mph 1018mb 46f 28f
8:30 6 8 mph 1018mb 46f 28f
8:24 7 8 mph 1018mb 46f 28f
8:18 7 8 mph 1018.1mb 46f 28f
8:12 7 9 mph 1018.2mb 46f 28f
8:06 7 8 mph 1018.6mb 46f 28f
8:00 7 8 mph 1018.7mb 46f 28f
7:54 7 8 mph 1018.6mb 46f 28f
7:48 6 9 mph 1018.8mb 46f 28f
7:42 8 9 mph 1018.7mb 46f 28f
7:36 7 8 mph 1018.7mb 46f 28f
7:30 7 9 mph 1018.7mb 46f 28f
7:24 8 9 mph 1018.7mb 46f 28f
7:18 7 8 mph 1018.8mb 46f 28f
7:12 7 8 mph 1018.9mb 46f 28f
7:06 7 8 mph 1018.9mb 46f 28f
7:00 6 7 mph 1018.8mb 46f 28f
6:54 6 7 mph 1018.7mb 46f 28f
6:48 6 7 mph 1018.6mb 46f 28f
6:42 6 9 mph 1018.5mb 46f 28f
6:36 8 9 mph 1018.4mb 46f 28f
6:30 7 8 mph 1018.4mb 46f 28f
6:24 7 9 mph 1018.5mb 47f 27f
6:18 8 9 mph 1018.3mb 47f 27f
6:12 8 10 mph 1018.3mb 47f 27f
6:06 8 9 mph 1018.7mb 47f 27f
6:00 7 9 mph 1019mb 47f 27f
5:54 7 9 mph 1019mb 47f 27f
5:48 8 9 mph 1019.3mb 47f 27f
5:42 7 8 mph 1019.6mb 47f 27f
5:36 7 8 mph 1019.7mb 47f 27f
5:30 6 8 mph 1020.1mb 47f 27f
5:24 6
mph
1020.1mb 47f 27f
5:18 6 8 mph 1020.1mb 47f 27f
5:12 6 8 mph 1020.3mb 47f 27f
5:06 6 7 mph 1020.1mb 47f 27f
5:00 6 8 mph 1020mb 47f 27f
4:54 7 9 mph 1019.9mb 47f 27f
4:48 7 8 mph 1019.9mb 47f 28f
4:42 6 8 mph 1020.1mb 47f 27f
4:36 6 7 mph 1020.2mb 47f 27f
4:30 7 8 mph 1020.3mb 47f 27f
4:24 6 8 mph 1020.2mb 47f 27f
4:18 7 9 mph 1020.1mb 47f 27f
4:12 6 8 mph 1020mb 47f 27f
4:06 6 8 mph 1019.7mb 47f 28f
4:00 7 8 mph 1019.8mb 47f 28f
3:54 7 9 mph 1019.9mb 47f 28f
3:48 6 8 mph 1019.9mb 47f 27f
3:42 5 6 mph 1020mb 47f 28f
3:36 6
mph
1020mb 47f 27f
3:30 6 7 mph 1020mb 47f 27f
3:24 5 7 mph 1020.3mb 47f 27f
3:18 6 7 mph 1020.4mb 47f 26f
3:12 6 8 mph 1020.6mb 47f 26f
3:06 6 7 mph 1020.6mb 47f 27f
3:00 6 7 mph 1020.5mb 47f 27f
2:54 6 7 mph 1020.4mb 47f 27f
2:48 6 7 mph 1020.3mb 47f 26f
2:42 6 7 mph 1020.3mb 47f 26f
2:36 7 8 mph 1020.2mb 47f 26f
2:30 6
mph
1020.3mb 47f 26f
2:24 5 6 mph 1020.4mb 47f 26f
2:18 5 6 mph 1020.7mb 47f 25f
2:12 3 6 mph 1020.8mb 47f 25f
2:06 5 6 mph 1021mb 47f 25f
2:00 5 6 mph 1021.1mb 47f 25f
1:54 6
mph
1021.3mb 47f 25f
1:48 5 6 mph 1021.4mb 47f 25f
1:42 5 6 mph 1021.4mb 47f 25f
1:36 3 7 mph 1021.4mb 47f 25f
1:30 6 7 mph 1021.4mb 47f 25f
1:24 3
mph
1021.6mb 47f 26f
1:18 3 5 mph 1021.6mb 47f 25f
1:12 5 6 mph 1021.5mb 47f 25f
1:06 5 6 mph 1021.4mb 47f 25f
1:00 5 6 mph 1021.4mb 47f 25f
12:54 5
mph
1021.3mb 47f 26f
12:48 5 6 mph 1021.4mb 47f -
12:42 3 5 mph 1021.7mb 47f -
12:36 3 5 mph 1021.5mb 47f -
12:30 2 3 mph 1021.5mb 47f 27f
12:24 3
mph
1021.3mb 47f 26f
12:18 3 5 mph 1021.3mb 47f 26f
12:12 2 3 mph 1021.3mb 47f 27f
12:06 3 5 mph 1021.3mb 48f 28f
12:00 3
mph
1021.3mb 48f 27f
dim. 12/04 11:54 3 5 mph 1021.5mb 48f 27f
11:48 1 3 mph 1021.6mb 47f 26f
11:42 3 5 mph 1021.3mb 47f 27f
11:36 6 7 mph 1021.2mb 47f 27f
11:30 6 7 mph 1021.3mb 47f 26f
11:24 6 7 mph 1021.5mb 47f 27f
11:18 6
mph
1021.8mb 47f 26f
11:12 5
mph
1021.9mb 47f 26f
11:06 2 3 mph 1022mb 47f 26f
11:00 5
mph
1022mb 46f 26f
10:54 5
mph
1022mb 46f 26f
10:48 3 5 mph 1022mb 46f 26f
10:42 5 6 mph 1021.9mb 46f 26f
10:36 5
mph
1021.8mb 45f 27f
10:30 2 3 mph 1021.9mb 45f 27f
10:24 3 5 mph 1022mb 45f 27f
10:18 3
mph
1021.9mb 45f 28f
10:12 5
mph
1021.8mb 45f 29f
10:06 2 3 mph 1022.1mb 45f 29f
10:00 2 5 mph 1022.3mb 45f 29f
9:54 3 5 mph 1022.2mb 45f 29f
9:48 1
mph
1022.4mb 45f 29f
9:42 1 2 mph 1022.3mb 46f 29f
9:36  -  3 mph 1022.3mb 46f 29f
9:30 3 5 mph 1022.3mb 46f 29f
9:24 3
mph
1022.3mb 46f 29f
9:18 3 7 mph 1022.5mb 46f 29f
9:12 7
mph
1022.6mb 46f 29f
9:06 5 8 mph 1022.9mb 46f 30f
9:00 7 8 mph 1022.9mb 46f 29f
8:54 6
mph
1023.1mb 46f 29f
8:48 5 6 mph 1023.2mb 47f 29f
8:42 5 6 mph 1023.3mb 47f 29f
8:36 6 7 mph 1023.3mb 47f 29f
8:30 3 6 mph 1023.3mb 47f 29f
8:24 3 6 mph 1023.2mb 47f 30f
8:18 2 3 mph 1023.2mb 47f 29f
8:12 2
mph
1023.1mb 47f 29f
8:06 2 6 mph 1023mb 47f 29f
8:00 6
mph
1022.8mb 47f 30f
7:54 5 6 mph 1022.7mb 47f 30f
7:48 3 5 mph 1022.7mb 47f 30f
7:42 2 5 mph 1022.6mb 47f 30f
7:36 3 5 mph 1022.4mb 47f 30f
7:30 5
mph
1022.3mb 47f 30f
7:24 3 5 mph 1022.3mb 47f 30f
7:18 2 5 mph 1022.4mb 47f 31f
7:12 3 6 mph 1022.3mb 47f 31f
7:06 3 6 mph 1022.3mb 47f 31f
7:00 6 7 mph 1022.3mb 47f 30f
6:54 5 7 mph 1022.3mb 47f 31f
6:48 5 6 mph 1022.3mb 47f 32f
6:42 1 2 mph 1022.3mb 47f 32f
6:36 2 5 mph 1022.2mb 47f 32f
6:30 3 5 mph 1022mb 47f 32f
6:24 5 6 mph 1022mb 47f 33f
6:18 3 5 mph 1022mb 47f 33f
6:12 5 9 mph 1022mb 47f 32f
6:06 9 10 mph 1021.8mb 47f 32f
6:00 8 9 mph 1021.8mb 47f 33f
5:54 5 7 mph 1022mb 47f 34f
5:48 6 7 mph 1021.8mb 47f 34f
5:42 6 10 mph 1021.8mb 48f 34f
5:36 8 13 mph 1021.7mb 48f 34f
5:30 10 13 mph 1021.7mb 48f 34f
5:24 8 10 mph 1021.8mb 48f 34f
5:18 8 13 mph 1021.7mb 48f 35f
5:12 9 13 mph 1021.9mb 48f 35f
5:06 7 10 mph 1022mb 48f 35f
5:00 6 9 mph 1022mb 48f 35f
4:54 6 8 mph 1022mb 48f 35f
4:48 3 9 mph 1022mb 48f 36f
4:42 6 10 mph 1021.9mb 48f 36f
4:36 6 10 mph 1021.7mb 48f 36f
4:30 6 9 mph 1021.7mb 48f 36f
4:24 6 13 mph 1021.5mb 48f 37f
4:18 7 14 mph 1021.5mb 48f 37f
4:12 9 13 mph 1021.4mb 48f 37f
4:06 10 14 mph 1021.4mb 48f 37f
4:00 11 13 mph 1021.2mb 48f 38f
3:54 9 14 mph 1021mb 48f 38f
3:48 10 14 mph 1021mb 48f 38f
3:42 8 16 mph 1021mb 48f 38f
3:36 11 16 mph 1020.9mb 48f 39f
3:30 8 14 mph 1020.9mb 48f 39f
3:24 8 11 mph 1020.8mb 48f 40f
3:18 9 13 mph 1020.8mb 48f 40f
3:12 9 14 mph 1020.7mb 48f 40f
3:06 9 16 mph 1020.8mb 48f 40f
3:00 10 16 mph 1020.8mb 48f 40f
2:54 10 14 mph 1020.8mb 48f 41f
2:48 10 16 mph 1020.7mb 48f 41f
2:42 11 15 mph 1020.6mb 48f 40f
2:36 11 14 mph 1020.5mb 48f 41f
2:30 8 14 mph 1020.5mb 48f 41f
2:24 8 13 mph 1020.4mb 48f 41f
2:18 10 14 mph 1020.4mb 48f 40f
2:12 11 14 mph 1020.3mb 48f 41f
2:06 9 15 mph 1020.3mb 48f 41f
2:00 9 14 mph 1020.1mb 48f 40f
1:54 8 16 mph 1020mb 48f 41f
1:48 8 17 mph 1020mb 48f 41f
1:42 8 13 mph 1019.9mb 48f 41f
1:36 9 14 mph 1020mb 48f 41f
1:30 10 14 mph 1020mb 48f 40f
1:24 8 14 mph 1020mb 48f 41f
1:18 8 14 mph 1020mb 48f 41f
1:12 7 14 mph 1020.1mb 48f 41f
1:06 8 16 mph 1020.1mb 48f 40f
1:00 8 14 mph 1020mb 48f 40f
12:54 8 16 mph 1019.9mb 48f 40f
12:48 9 14 mph 1019.9mb 48f 40f
12:42 9 15 mph 1019.9mb 48f 40f
12:36 11 16 mph 1020mb 48f 40f
12:30 11 20 mph 1020mb 48f 40f
12:24 8 14 mph 1020.1mb 48f 40f
12:18 8 14 mph 1020.1mb 48f 40f
12:12 10 15 mph 1020.2mb 48f 40f
12:06 11 16 mph 1020.3mb 48f 39f
12:00 6 14 mph 1020.5mb 48f 39f
11:54 9 13 mph 1020.5mb 48f 39f
11:48 9 15 mph 1020.5mb 48f 39f
11:42 8 15 mph 1020.6mb 48f 38f
11:36 11 16 mph 1020.5mb 48f 38f
11:30 9 14 mph 1020.6mb 48f 38f
11:24 11 14 mph 1020.5mb 48f 38f
11:18 11 15 mph 1020.6mb 48f 38f
11:12 11 16 mph 1020.6mb 48f 37f
11:06 10 15 mph 1020.7mb 48f 38f
11:00 10 14 mph 1020.8mb 48f 37f
10:54 9 14 mph 1020.9mb 48f 37f
10:48 8 13 mph 1021mb 47f 37f
10:42 11 15 mph 1021mb 47f 37f
10:36 13 16 mph 1021.1mb 47f 36f
10:30 6 14 mph 1021.2mb 47f 37f
10:24 9 13 mph 1021.3mb 47f 36f
10:18 10 17 mph 1021.3mb 47f 36f
10:12 7 13 mph 1021.3mb 46f 36f
10:06 11 15 mph 1021.3mb 46f 36f
10:00 7 13 mph 1021.3mb 46f 36f
9:54 9 15 mph 1021.4mb 45f 35f
9:48 10 14 mph 1021.3mb 45f 35f
9:42 7 13 mph 1021.2mb 45f 35f
9:36 9 13 mph 1021.2mb 45f 35f
9:30 10 14 mph 1021.2mb 45f 35f
9:24 9 10 mph 1021.2mb 45f 35f
9:18 6 11 mph 1021.2mb 45f 35f
9:12 8 13 mph 1021mb 45f 34f
9:06 11 14 mph 1021.1mb 45f 34f
9:00 7 13 mph 1021mb 46f 34f
8:54 9 13 mph 1021mb 46f 34f
8:48 7 10 mph 1021mb 46f 34f
8:42 7 9 mph 1020.9mb 47f 33f
8:36 7 10 mph 1021mb 47f 33f
8:30 8 10 mph 1020.9mb 47f 33f
8:24 6 8 mph 1020.8mb 47f 32f
8:18 7 9 mph 1020.9mb 47f 32f
8:12 6 10 mph 1020.9mb 47f 32f
8:06 7 9 mph 1020.8mb 47f 32f
8:00 6 8 mph 1020.8mb 47f 32f
7:54 5 7 mph 1020.9mb 47f 32f
7:48 6 8 mph 1020.8mb 47f 31f
7:42 6 7 mph 1020.7mb 47f 31f
7:36 6 8 mph 1020.6mb 47f 31f
7:30 6 8 mph 1020.5mb 47f 31f
7:24 6 7 mph 1020.5mb 47f 31f
7:18 7 8 mph 1020.4mb 47f 31f
7:12 6 7 mph 1020.3mb 47f 31f
7:06 6 7 mph 1020.3mb 47f 31f
7:00 6 8 mph 1020.4mb 47f 31f
6:54 6 7 mph 1020.3mb 47f 31f
6:48 6 7 mph 1020.2mb 47f 31f
6:42 3 6 mph 1020.4mb 47f 32f
6:36 5 7 mph 1020.4mb 47f 32f
6:30 3 7 mph 1020.3mb 47f 32f
6:24 2 3 mph 1020.3mb 47f 32f
6:18 2 6 mph 1020.3mb 48f 32f
6:12 5 7 mph 1020.3mb 48f 32f
6:06 3 9 mph 1020.1mb 48f 32f
6:00 6 7 mph 1019.9mb 48f 32f
5:54 3 5 mph 1020.1mb 48f 33f
5:48 3 6 mph 1020mb 48f 33f
5:42 6 7 mph 1019.9mb 48f 33f
5:36 6 11 mph 1019.8mb 48f 33f
5:30 8 10 mph 1019.8mb 48f 33f
5:24 7 10 mph 1019.7mb 48f 33f
5:18 6 9 mph 1019.7mb 48f 33f
5:12 6 10 mph 1019.7mb 48f 33f
5:06 6 8 mph 1019.7mb 48f 33f
5:00 2 7 mph 1019.7mb 48f 33f
4:54 3 6 mph 1019.6mb 48f 33f
4:48 5 7 mph 1019.6mb 48f 33f
4:42 3 6 mph 1019.6mb 48f 33f
4:36 5 7 mph 1019.5mb 48f 33f
4:30 6 7 mph 1019.5mb 48f 33f
4:24 6 7 mph 1019.4mb 48f 33f
4:18 3 6 mph 1019.3mb 48f 33f
4:12 6 8 mph 1019.3mb 48f 34f
4:06 5 7 mph 1019.3mb 48f 34f
4:00 5 7 mph 1019.2mb 48f 34f
3:54 5 8 mph 1019.2mb 48f 34f
3:48 6 9 mph 1019.1mb 48f 34f
3:42 6 8 mph 1019.2mb 48f 34f
3:36 5 8 mph 1019.1mb 48f 34f
3:30 5 8 mph 1019.1mb 48f 34f
3:24 6 8 mph 1018.9mb 48f 34f
3:18 5 9 mph 1018.8mb 48f 34f
3:12 6 9 mph 1018.8mb 48f 34f
3:06 5 8 mph 1018.7mb 48f 34f
3:00 6 7 mph 1018.8mb 48f 34f
2:54 5 8 mph 1018.8mb 48f 34f
2:48 5 8 mph 1018.7mb 48f 34f
2:42 6 8 mph 1018.7mb 48f 34f
2:36 6 9 mph 1018.7mb 48f 34f
2:30 6 7 mph 1018.7mb 48f 34f
2:24 6 7 mph 1018.7mb 48f 34f
2:18 5 6 mph 1018.6mb 48f 34f
2:12 3 6 mph 1018.6mb 48f 34f
2:06 5 6 mph 1018.5mb 48f 34f
2:00 5 6 mph 1018.4mb 48f 34f
1:54 5 6 mph 1018.3mb 48f 34f
1:48 5 7 mph 1018.2mb 48f 34f
1:42 6 7 mph 1018.2mb 48f 34f
1:36 3 7 mph 1018.1mb 48f 34f
1:30 3 6 mph 1018mb 48f 34f
1:24 3 6 mph 1017.8mb 48f 34f
1:18 5 7 mph 1017.7mb 48f 34f
1:12 5 7 mph 1017.7mb 48f 34f
1:06 6 7 mph 1017.5mb 48f 34f
1:00 5 7 mph 1017.5mb 48f 34f
12:54 3 6 mph 1017.5mb 48f 33f
12:48 5 6 mph 1017.5mb 48f 33f
12:42 5 6 mph 1017.5mb 48f 33f
12:36 3 6 mph 1017.5mb 48f 33f
12:30 5
mph
1017.4mb 48f 33f
12:24 3 5 mph 1017.3mb 48f 33f
12:18 3 5 mph 1017.1mb 48f 33f
12:12 3 6 mph 1017.1mb 48f 33f
12:06 5 7 mph 1017.1mb 48f 33f
12:00 6 9 mph 1017.1mb 48f 33f
sam. 12/03 11:54 7 9 mph 1017mb 48f 33f
11:48 7 8 mph 1017mb 48f 33f
11:42 6 7 mph 1017mb 48f 33f
11:36 5 6 mph 1016.9mb 48f 33f
11:30 3 6 mph 1016.9mb 48f 33f
11:24 5 6 mph 1016.9mb 48f 33f
11:18 5 6 mph 1016.8mb 48f 32f
11:12 5 6 mph 1016.8mb 48f 31f
11:06 5 7 mph 1016.8mb 48f 31f
11:00 7
mph
1016.7mb 47f 32f
10:54 6 7 mph 1016.6mb 47f 32f
10:48 6 7 mph 1016.6mb 47f 32f
10:42 7 8 mph 1016.6mb 47f 33f
10:36 7 8 mph 1016.6mb 47f 34f
10:30 6 7 mph 1016.6mb 47f 34f
10:24 5 7 mph 1016.6mb 47f 34f
10:18 3 6 mph 1016.6mb 47f 34f
10:12 3
mph
1016.6mb 47f 34f
10:06 3
mph
1016.5mb 47f 34f
10:00 3 5 mph 1016.4mb 47f 33f
9:54 3 5 mph 1016.3mb 47f 34f
9:48 5
mph
1016.3mb 47f 34f
9:42 5 6 mph 1016.3mb 46f 34f
9:36 6 7 mph 1016.2mb 46f 34f
9:30 6 7 mph 1016.2mb 46f 34f
9:24 6 7 mph 1016.2mb 46f 34f
9:18 7 8 mph 1016.2mb 46f 35f
9:12 7 9 mph 1016.1mb 46f 35f
9:06 7 10 mph 1016.1mb 46f 36f
9:00 7 13 mph 1016.1mb 47f 36f
8:54 8 14 mph 1016.1mb 47f 36f
8:48 8 11 mph 1016.1mb 47f 36f
8:42 7 13 mph 1016.1mb 47f 36f
8:36 7 10 mph 1016.1mb 47f 36f
8:30 6 8 mph 1016.2mb 47f 36f
8:24 5 9 mph 1016.1mb 47f 35f
8:18 6 10 mph 1016mb 47f 35f
8:12 7 11 mph 1015.9mb 47f 35f
8:06 6 9 mph 1015.9mb 47f 35f
8:00 5 9 mph 1015.9mb 47f 35f
7:54 6 8 mph 1015.8mb 47f 35f
7:48 6 7 mph 1015.8mb 47f 35f
7:42 6 7 mph 1015.7mb 47f 35f
7:36 6 7 mph 1015.7mb 47f 35f
7:30 5 8 mph 1015.7mb 47f 36f
7:24 6 8 mph 1015.6mb 47f 36f
7:18 6 8 mph 1015.5mb 47f 36f
7:12 6 10 mph 1015.5mb 47f 37f
7:06 6 8 mph 1015.4mb 47f 37f
7:00 6 9 mph 1015.4mb 47f 37f
6:54 6 9 mph 1015.2mb 47f 37f
6:48 6 8 mph 1015.1mb 47f 37f
6:42 6 7 mph 1015mb 47f 37f
6:36 5 9 mph 1015mb 47f 37f
6:30 6 8 mph 1014.9mb 48f 37f
6:24 7 9 mph 1014.7mb 48f 37f
6:18 8 9 mph 1014.6mb 48f 37f
6:12 7 9 mph 1014.5mb 48f 37f
6:06 7 8 mph 1014.3mb 48f 37f
6:00 6 8 mph 1014.2mb 48f 38f
5:54 6 7 mph 1014.1mb 48f 38f
5:48 7 10 mph 1014mb 48f 38f
5:42 6 7 mph 1013.9mb 48f 38f
5:36 5 8 mph 1013.9mb 48f 38f
5:30 6 8 mph 1013.8mb 48f 39f
5:24 6 7 mph 1013.8mb 48f 39f
5:18 5 6 mph 1013.6mb 48f 39f
5:12 2 5 mph 1013.5mb 48f 39f
5:06 3 8 mph 1013.4mb 48f 39f
5:00 6 9 mph 1013.3mb 48f 39f
4:54 7 10 mph 1013.2mb 48f 40f
4:48 7 10 mph 1013.1mb 48f 40f
4:42 7 14 mph 1013mb 48f 40f
4:36 11 17 mph 1012.9mb 48f 40f
4:30 10 18 mph 1012.8mb 48f 40f
4:24 10 18 mph 1012.6mb 48f 40f
4:18 10 15 mph 1012.5mb 48f 41f
4:12 10 15 mph 1012.4mb 48f 41f
4:06 14 16 mph 1012.3mb 48f 41f
4:00 9 13 mph 1012.2mb 48f 41f
3:54 9 15 mph 1012.1mb 48f 41f
3:48 11 16 mph 1011.9mb 48f 42f
3:42 11 17 mph 1011.7mb 48f 42f
3:36 11 16 mph 1011.6mb 48f 42f
3:30 11 16 mph 1011.6mb 48f 42f
3:24 13 16 mph 1011.5mb 48f 42f
3:18 8 13 mph 1011.4mb 48f 42f
3:12 9 16 mph 1011.3mb 48f 42f
3:06 13 15 mph 1011.2mb 48f 42f
3:00 13 20 mph 1011.1mb 48f 43f
2:54 11 20 mph 1011mb 48f 43f
2:48 13 17 mph 1010.9mb 48f 43f
2:42 9 14 mph 1010.8mb 48f 43f
2:36 10 14 mph 1010.7mb 48f 43f
2:30 13 18 mph 1010.6mb 48f 43f
2:24 10 14 mph 1010.5mb 48f 43f
2:18 10 15 mph 1010.5mb 48f 43f
2:12 10 20 mph 1010.4mb 48f 43f
2:06 15 23 mph 1010.3mb 48f 43f
2:00 16 23 mph 1010.2mb 48f 44f
1:54 16 24 mph 1010.2mb 48f 44f
1:48 15 21 mph 1010.2mb 48f 44f
1:42 17 24 mph 1010.1mb 48f 43f
1:36 14 18 mph 1010.1mb 48f 43f
1:30 14 18 mph 1010.1mb 48f 43f
1:24 10 22 mph 1010.1mb 48f 44f
1:18 11 18 mph 1010.1mb 48f 44f
1:12 15 22 mph 1010mb 48f 44f
1:06 14 17 mph 1010mb 48f 44f
1:00 14 17 mph 1009.9mb 48f 44f
12:54 13 16 mph 1009.9mb 48f 44f
12:48 13 20 mph 1009.9mb 48f 43f
12:42 14 18 mph 1009.8mb 48f 43f
12:36 11 20 mph 1009.9mb 48f 43f
12:30 15 21 mph 1009.8mb 48f 43f
12:24 13 17 mph 1009.8mb 48f 43f
12:18 11 20 mph 1009.8mb 48f 43f
12:12 14 20 mph 1009.8mb 48f 43f
12:06 13 18 mph 1009.8mb 48f 43f
12:00 10 20 mph 1009.8mb 48f 43f
11:54 14 23 mph 1009.7mb 48f 43f
11:48 17 22 mph 1009.6mb 48f 43f
11:42 14 18 mph 1009.7mb 48f 44f
11:36 14 21 mph 1009.6mb 48f 44f
11:30 21 25 mph 1009.6mb 48f 43f
11:24 13 20 mph 1009.5mb 48f 44f
11:18 11 23 mph 1009.5mb 48f 44f
11:12 15 24 mph 1009.5mb 48f 44f
11:06 17 24 mph 1009.4mb 48f 44f
11:00 9 16 mph 1009.5mb 48f 44f
10:54 10 22 mph 1009.5mb 48f 43f
10:48 10 18 mph 1009.5mb 48f 44f
10:42 14 18 mph 1009.4mb 48f 43f
10:36 8 16 mph 1009.5mb 48f 43f
10:30 11 18 mph 1009.4mb 48f 43f
10:24 8 14 mph 1009.5mb 48f 43f
10:18 8 13 mph 1009.4mb 48f 43f
10:12 10 16 mph 1009.4mb 48f 43f
10:06 16 22 mph 1009.3mb 47f 43f
10:00 14 20 mph 1009.3mb 47f 43f
9:54 10 21 mph 1009.4mb 47f 43f
9:48 14 22 mph 1009.3mb 47f 42f
9:42 14 21 mph 1009.3mb 47f 42f
9:36 11 20 mph 1009.3mb 47f 42f
9:30 13 18 mph 1009.3mb 47f 42f
9:24 13 18 mph 1009.1mb 47f 42f
9:18 14 20 mph 1009mb 46f 41f
9:12 15 21 mph 1008.9mb 46f 41f
9:06 10 20 mph 1009mb 46f 41f
9:00 15 22 mph 1009mb 46f 41f
8:54 14 20 mph 1009mb 46f 41f
8:48 11 17 mph 1008.9mb 46f 41f
8:42 10 20 mph 1008.8mb 46f 40f
8:36 13 16 mph 1008.8mb 46f 40f
8:30 9 18 mph 1008.8mb 46f 40f
8:24 11 16 mph 1008.6mb 46f 40f
8:18 9 17 mph 1008.6mb 46f 39f
8:12 11 15 mph 1008.6mb 46f 39f
8:06 9 16 mph 1008.6mb 47f 39f
8:00 9 15 mph 1008.4mb 47f 38f
7:54 8 15 mph 1008.4mb 47f 38f
7:48 9 14 mph 1008.2mb 47f 38f
7:42 9 17 mph 1008.1mb 47f 38f
7:36 10 13 mph 1008.1mb 47f 38f
7:30 7 13 mph 1008.1mb 47f 38f
7:24 11 15 mph 1008mb 47f 38f
7:18 8 14 mph 1007.8mb 47f 37f
7:12 8 13 mph 1007.7mb 47f 37f
7:06 9 15 mph 1007.8mb 47f 37f
7:00 7 11 mph 1007.8mb 47f 37f
6:54 7 13 mph 1007.8mb 47f 37f
6:48 8 14 mph 1007.7mb 47f 37f
6:42 8 13 mph 1007.7mb 47f 37f
6:36 7 13 mph 1007.6mb 48f 37f
6:30 7 11 mph 1007.6mb 48f 38f
6:24 7 10 mph 1007.6mb 48f 38f
6:18 8 13 mph 1007.5mb 48f 38f
6:12 8 13 mph 1007.3mb 48f 38f
6:06 10 14 mph 1007.1mb 48f 38f
6:00 7 10 mph 1007.1mb 48f 38f
5:54 5 13 mph 1007mb 48f 38f
5:48 5 7 mph 1007mb 48f 38f
5:42 6 13 mph 1006.9mb 48f 38f
5:36 5 14 mph 1006.8mb 48f 38f
5:30 7 13 mph 1006.7mb 48f 38f
5:24 7 14 mph 1006.6mb 48f 38f
5:18 5 11 mph 1006.5mb 48f 38f
5:12 5 14 mph 1006.4mb 48f 38f
5:06 8 11 mph 1006.3mb 48f 38f
5:00 7 11 mph 1006.2mb 48f 38f
4:54 7 10 mph 1006.2mb 48f 38f
4:48 6 10 mph 1006.2mb 48f 38f
4:42 6 10 mph 1006.1mb 48f 38f
4:36 5 11 mph 1006.1mb 48f 38f
4:30 5 7 mph 1006.2mb 48f 38f
4:24 5 8 mph 1006.1mb 48f 38f
4:18 8 11 mph 1006.1mb 48f 38f
4:12 8 13 mph 1006mb 48f 38f
4:06 11 16 mph 1006mb 48f 38f
4:00 8 13 mph 1006.1mb 48f 37f
3:54 10 15 mph 1006mb 48f 37f
3:48 8 11 mph 1005.9mb 48f 37f
3:42 7 10 mph 1006mb 48f 37f
3:36 6 10 mph 1006mb 48f 37f
3:30 7 10 mph 1006mb 48f 37f
3:24 7 11 mph 1006.1mb 48f 37f
3:18 6 10 mph 1006.2mb 48f 37f
3:12 7 10 mph 1006.2mb 48f 37f
3:06 8 14 mph 1006.2mb 48f 37f
3:00 8 15 mph 1006.2mb 48f 37f
2:54 7 13 mph 1006.2mb 48f 38f
2:48 8 13 mph 1006.2mb 48f 38f
2:42 7 13 mph 1006.2mb 48f 38f
2:36 7 15 mph 1006.2mb 48f 38f
2:30 6 14 mph 1006.2mb 48f 38f
2:24 7 9 mph 1006.2mb 48f 38f
2:18 8 14 mph 1006.1mb 48f 38f
2:12 8 13 mph 1006.1mb 48f 38f
2:06 5 8 mph 1006.2mb 49f 38f
2:00 5 10 mph 1006.1mb 49f 38f
1:54 6 10 mph 1006.1mb 49f 38f
1:48 3 8 mph 1006mb 49f 38f
1:42 6 11 mph 1006.1mb 49f 38f
1:36 7 10 mph 1006mb 49f 38f
1:30 7 10 mph 1005.9mb 49f 38f
1:24 7 11 mph 1005.9mb 49f 38f
1:18 6 13 mph 1005.8mb 49f 38f
1:12 6 9 mph 1005.7mb 49f 38f
1:06 8 13 mph 1005.5mb 49f 38f
1:00 8 14 mph 1005.5mb 49f 38f
12:54 7 10 mph 1005.6mb 49f 39f
12:48 5 7 mph 1005.6mb 49f 39f
12:42 5 10 mph 1005.6mb 49f 39f
12:36 7 11 mph 1005.4mb 49f 39f
12:30 6 9 mph 1005.4mb 49f 39f
12:24 7 10 mph 1005.4mb 49f 40f
12:18 8 14 mph 1005.3mb 49f 40f
12:12 8 14 mph 1005.2mb 49f 40f
12:06 7 14 mph 1005.3mb 49f 40f
12:00 7 11 mph 1005.2mb 49f 40f
ven. 12/02 11:54 10 14 mph 1005.2mb 49f 40f
11:48 7 11 mph 1005.2mb 49f 40f
11:42 9 13 mph 1005.2mb 49f 40f
11:36 8 13 mph 1005.2mb 49f 41f
11:30 6 10 mph 1005.2mb 49f 41f
11:24 7 13 mph 1005.2mb 49f 41f
11:18 7 13 mph 1005.2mb 49f 41f
11:12 7 13 mph 1005.1mb 49f 41f
11:06 9 13 mph 1005mb 49f 41f
11:00 9 15 mph 1005.1mb 49f 41f
10:54 8 11 mph 1005.1mb 49f 41f
10:48 9 14 mph 1005mb 49f 42f
10:42 7 10 mph 1005.1mb 48f 42f
10:36 7 13 mph 1005mb 48f 42f
10:30 8 14 mph 1004.9mb 48f 42f
10:24 9 15 mph 1004.8mb 48f 42f
10:18 10 16 mph 1004.8mb 48f 42f
10:12 11 16 mph 1004.8mb 48f 42f
10:06 6 13 mph 1004.8mb 48f 42f